createdAt,value
2019-06-26T00:02:07.966Z,8.70
2019-06-26T00:04:36.710Z,9.53
2019-06-26T00:07:05.603Z,9.17
2019-06-26T00:09:34.547Z,9.23
2019-06-26T00:12:03.327Z,9.77
2019-06-26T00:14:32.119Z,9.47
2019-06-26T00:17:00.860Z,10.20
2019-06-26T00:19:29.611Z,10.27
2019-06-26T00:21:58.386Z,10.07
2019-06-26T00:24:27.162Z,9.40
2019-06-26T00:26:56.093Z,10.20
2019-06-26T00:29:24.858Z,10.67
2019-06-26T00:31:53.643Z,9.73
2019-06-26T00:34:22.315Z,10.97
2019-06-26T00:36:51.556Z,10.53
2019-06-26T00:39:20.388Z,10.40
2019-06-26T00:41:49.160Z,10.67
2019-06-26T00:44:17.990Z,10.83
2019-06-26T00:46:46.858Z,10.40
2019-06-26T00:49:15.631Z,9.07
2019-06-26T00:51:44.406Z,11.13
2019-06-26T00:54:13.117Z,12.23
2019-06-26T00:56:41.903Z,11.47
2019-06-26T00:59:10.806Z,11.37
2019-06-26T01:01:39.554Z,11.30
2019-06-26T01:04:09.977Z,10.60
2019-06-26T01:06:40.330Z,12.30
2019-06-26T01:09:09.139Z,11.67
2019-06-26T01:11:38.016Z,12.33
2019-06-26T01:14:06.899Z,13.00
2019-06-26T01:16:35.679Z,11.73
2019-06-26T01:19:04.681Z,12.47
2019-06-26T01:21:33.668Z,13.70
2019-06-26T01:24:02.452Z,14.50
2019-06-26T01:26:31.222Z,13.50
2019-06-26T01:29:00.029Z,14.60
2019-06-26T01:31:28.787Z,14.40
2019-06-26T01:33:57.683Z,14.70
2019-06-26T01:36:26.331Z,15.47
2019-06-26T01:38:55.122Z,14.70
2019-06-26T01:41:23.898Z,14.70
2019-06-26T01:43:52.713Z,15.47
2019-06-26T01:46:21.503Z,15.33
2019-06-26T01:48:50.188Z,16.00
2019-06-26T01:51:18.965Z,17.63
2019-06-26T01:53:47.704Z,18.67
2019-06-26T01:56:16.578Z,17.60
2019-06-26T01:58:45.403Z,17.97
2019-06-26T02:01:14.243Z,16.87
2019-06-26T02:03:43.006Z,17.77
2019-06-26T02:06:11.861Z,19.17
2019-06-26T02:08:40.675Z,16.83
2019-06-26T02:11:09.394Z,17.50
2019-06-26T02:13:38.158Z,18.77
2019-06-26T02:16:06.953Z,19.27
2019-06-26T02:18:37.250Z,19.43
2019-06-26T02:21:06.067Z,18.40
2019-06-26T02:23:34.879Z,19.83
2019-06-26T02:26:03.559Z,18.00
2019-06-26T02:28:32.204Z,18.70
2019-06-26T02:31:01.049Z,19.60
2019-06-26T02:33:29.796Z,18.23
2019-06-26T02:35:58.658Z,17.50
2019-06-26T02:38:27.512Z,19.00
2019-06-26T02:40:56.309Z,19.27
2019-06-26T02:43:25.135Z,17.40
2019-06-26T02:45:53.961Z,18.30
2019-06-26T02:48:22.721Z,20.43
2019-06-26T02:50:51.456Z,17.77
2019-06-26T02:53:20.241Z,19.77
2019-06-26T02:55:49.053Z,18.33
2019-06-26T02:58:17.871Z,18.90
2019-06-26T03:00:46.598Z,21.30
2019-06-26T03:03:15.560Z,19.60
2019-06-26T03:05:44.314Z,21.10
2019-06-26T03:08:13.095Z,21.03
2019-06-26T03:10:41.848Z,18.73
2019-06-26T03:13:10.580Z,20.67
2019-06-26T03:15:39.354Z,21.57
2019-06-26T03:18:08.116Z,21.27
2019-06-26T03:20:39.653Z,21.87
2019-06-26T03:23:08.377Z,21.10
2019-06-26T03:25:37.164Z,20.87
2019-06-26T03:28:05.959Z,22.60
2019-06-26T03:30:34.644Z,21.30
2019-06-26T03:33:03.333Z,20.77
2019-06-26T03:35:32.108Z,19.67
2019-06-26T03:38:00.905Z,21.57
2019-06-26T03:40:29.664Z,22.07
2019-06-26T03:42:58.346Z,21.00
2019-06-26T03:45:27.087Z,20.63
2019-06-26T03:47:55.794Z,20.40
2019-06-26T03:50:24.569Z,20.50
2019-06-26T03:52:53.359Z,21.87
2019-06-26T03:55:22.025Z,19.83
2019-06-26T03:57:50.689Z,19.50
2019-06-26T04:00:22.260Z,21.03
2019-06-26T04:02:51.089Z,18.87
2019-06-26T04:05:19.747Z,18.20
2019-06-26T04:07:48.563Z,19.73
2019-06-26T04:10:17.591Z,17.20
2019-06-26T04:12:46.238Z,17.83
2019-06-26T04:15:15.216Z,17.03
2019-06-26T04:17:44.004Z,18.90
2019-06-26T04:20:13.180Z,18.57
2019-06-26T04:22:41.949Z,19.17
2019-06-26T04:25:10.943Z,18.80
2019-06-26T04:27:39.612Z,17.40
2019-06-26T04:30:10.480Z,19.27
2019-06-26T04:32:39.378Z,17.80
2019-06-26T04:35:08.327Z,18.10
2019-06-26T04:37:37.066Z,19.63
2019-06-26T04:40:07.292Z,19.63
2019-06-26T04:42:36.028Z,20.90
2019-06-26T04:45:06.612Z,22.33
2019-06-26T04:47:35.646Z,21.73
2019-06-26T04:50:06.842Z,19.47
2019-06-26T04:52:35.612Z,22.80
2019-06-26T04:55:06.691Z,22.10
2019-06-26T04:57:35.666Z,22.10
2019-06-26T05:00:07.393Z,19.87
2019-06-26T05:02:36.138Z,22.93
2019-06-26T05:05:06.505Z,21.53
2019-06-26T05:07:35.270Z,21.83
2019-06-26T05:10:05.378Z,22.80
2019-06-26T05:12:34.232Z,21.23
2019-06-26T05:15:03.697Z,21.30
2019-06-26T05:17:32.565Z,21.47
2019-06-26T05:20:01.451Z,22.23
2019-06-26T05:22:30.305Z,19.10
2019-06-26T05:24:59.058Z,20.93
2019-06-26T05:27:27.778Z,22.33
2019-06-26T05:29:56.543Z,22.37
2019-06-26T05:32:25.240Z,23.40
2019-06-26T05:34:53.961Z,23.57
2019-06-26T05:37:22.762Z,23.93
2019-06-26T05:39:54.630Z,22.80
2019-06-26T05:42:22.006Z,23.40
2019-06-26T05:44:50.870Z,24.77
2019-06-26T05:47:22.041Z,24.00
2019-06-26T05:49:50.282Z,25.70
2019-06-26T05:52:19.090Z,25.67
2019-06-26T05:54:47.881Z,24.70
2019-06-26T05:57:16.661Z,23.83
2019-06-26T05:59:45.578Z,24.90
2019-06-26T06:02:14.361Z,25.83
2019-06-26T06:04:43.226Z,24.80
2019-06-26T06:07:12.013Z,24.83
2019-06-26T06:09:40.695Z,24.57
2019-06-26T06:12:09.488Z,27.20
2019-06-26T06:14:38.437Z,28.00
2019-06-26T06:17:07.223Z,29.13
2019-06-26T06:19:36.009Z,25.93
2019-06-26T06:22:05.142Z,27.17
2019-06-26T06:24:33.853Z,27.77
2019-06-26T06:27:02.711Z,26.10
2019-06-26T06:29:31.450Z,26.20
2019-06-26T06:32:00.278Z,23.03
2019-06-26T06:34:28.984Z,25.90
2019-06-26T06:36:57.836Z,24.83
2019-06-26T06:39:26.668Z,24.70
2019-06-26T06:41:55.436Z,23.70
2019-06-26T06:44:24.220Z,24.70
2019-06-26T06:47:03.270Z,23.57
2019-06-26T06:49:23.505Z,23.97
2019-06-26T06:51:52.296Z,24.83
2019-06-26T06:54:21.092Z,26.10
2019-06-26T06:56:49.951Z,24.87
2019-06-26T06:59:19.559Z,25.77
2019-06-26T07:01:48.405Z,23.20
2019-06-26T07:04:17.188Z,26.57
2019-06-26T07:06:46.083Z,25.10
2019-06-26T07:09:14.903Z,24.83
2019-06-26T07:11:43.831Z,23.00
2019-06-26T07:14:12.789Z,23.77
2019-06-26T07:16:41.486Z,26.48
2019-06-26T07:19:10.439Z,27.90
2019-06-26T07:21:39.252Z,25.68
2019-06-26T07:24:08.026Z,21.62
2019-06-26T07:26:36.906Z,25.23
2019-06-26T07:29:05.761Z,25.00
2019-06-26T07:31:38.294Z,24.32
2019-06-26T07:34:05.377Z,25.35
2019-06-26T07:36:34.120Z,22.95
2019-06-26T07:39:03.176Z,23.38
2019-06-26T07:41:31.944Z,25.72
2019-06-26T07:44:00.812Z,24.37
2019-06-26T07:46:29.603Z,23.12
2019-06-26T07:48:58.332Z,23.12
2019-06-26T07:51:27.135Z,22.90
2019-06-26T07:53:55.862Z,23.10
2019-06-26T07:56:24.780Z,20.35
2019-06-26T07:58:53.770Z,22.45
2019-06-26T08:01:22.564Z,20.75
2019-06-26T08:03:51.389Z,21.10
2019-06-26T08:06:39.426Z,19.70
2019-06-26T08:09:08.390Z,20.20
2019-06-26T08:11:37.102Z,17.80
2019-06-26T08:14:05.998Z,17.32
2019-06-26T08:16:34.841Z,19.30
2019-06-26T08:19:03.663Z,16.35
2019-06-26T08:21:32.510Z,17.32
2019-06-26T08:24:01.353Z,17.55
2019-06-26T08:26:30.154Z,19.00
2019-06-26T08:28:58.969Z,13.13
2019-06-26T08:31:27.781Z,11.03
2019-06-26T08:33:56.532Z,12.65
2019-06-26T08:36:25.339Z,13.32
2019-06-26T08:38:54.114Z,9.73
2019-06-26T08:41:22.928Z,8.78
2019-06-26T08:43:51.652Z,9.45
2019-06-26T08:46:20.462Z,9.03
2019-06-26T08:48:51.854Z,7.67
2019-06-26T08:51:20.325Z,7.03
2019-06-26T08:53:49.073Z,8.50
2019-06-26T08:56:17.797Z,6.85
2019-06-26T08:58:46.546Z,6.50
2019-06-26T09:01:15.289Z,7.10
2019-06-26T09:03:44.100Z,6.42
2019-06-26T09:06:13.159Z,6.87
2019-06-26T09:08:41.955Z,6.78
2019-06-26T09:11:10.627Z,7.03
2019-06-26T09:13:39.606Z,7.28
2019-06-26T09:16:08.349Z,6.78
2019-06-26T09:18:37.017Z,6.42
2019-06-26T09:21:05.992Z,5.85
2019-06-26T09:23:34.792Z,5.53
2019-06-26T09:26:03.532Z,4.87
2019-06-26T09:28:32.219Z,3.98
2019-06-26T09:31:00.954Z,4.03
2019-06-26T09:33:32.216Z,4.80
2019-06-26T09:36:00.382Z,5.22
2019-06-26T09:38:29.119Z,5.92
2019-06-26T09:41:17.087Z,5.20
2019-06-26T09:43:45.692Z,5.15
2019-06-26T09:46:15.343Z,4.35
2019-06-26T09:48:52.514Z,5.00
2019-06-26T09:51:14.636Z,6.30
2019-06-26T09:53:47.490Z,5.05
2019-06-26T09:56:13.929Z,5.95
2019-06-26T09:58:42.679Z,5.92
2019-06-26T10:01:11.376Z,5.42
2019-06-26T10:03:40.254Z,5.95
2019-06-26T10:06:09.001Z,6.37
2019-06-26T10:08:37.754Z,5.10
2019-06-26T10:11:06.875Z,5.85
2019-06-26T10:13:35.708Z,7.22
2019-06-26T10:16:04.534Z,7.05
2019-06-26T10:18:33.317Z,8.13
2019-06-26T10:21:02.188Z,8.43
2019-06-26T10:23:31.024Z,8.05
2019-06-26T10:25:59.823Z,6.78
2019-06-26T10:28:28.611Z,7.78
2019-06-26T10:30:57.384Z,7.58
2019-06-26T10:33:26.119Z,6.70
2019-06-26T10:35:54.899Z,8.88
2019-06-26T10:38:23.702Z,8.40
2019-06-26T10:40:52.562Z,7.22
2019-06-26T10:43:21.410Z,7.70
2019-06-26T10:45:50.118Z,7.45
2019-06-26T10:48:18.765Z,4.55
2019-06-26T10:50:51.037Z,4.87
2019-06-26T10:53:18.223Z,5.60
2019-06-26T10:55:46.911Z,4.95
2019-06-26T10:58:15.714Z,3.80
2019-06-26T11:00:44.706Z,4.45
2019-06-26T11:03:13.389Z,5.28
2019-06-26T11:05:42.592Z,5.33
2019-06-26T11:08:11.333Z,5.87
2019-06-26T11:10:40.116Z,5.67
2019-06-26T11:13:08.801Z,6.80
2019-06-26T11:15:37.641Z,7.80
2019-06-26T11:18:06.432Z,6.78
2019-06-26T11:20:35.535Z,8.33
2019-06-26T11:23:04.536Z,6.55
2019-06-26T11:25:33.307Z,8.60
2019-06-26T11:28:02.282Z,9.60
2019-06-26T11:30:31.296Z,11.95
2019-06-26T11:33:00.069Z,12.73
2019-06-26T11:35:28.878Z,16.10
2019-06-26T11:37:57.643Z,15.78
2019-06-26T11:40:26.385Z,14.40
2019-06-26T11:42:55.181Z,15.85
2019-06-26T11:45:24.181Z,13.88
2019-06-26T11:47:52.949Z,13.55
2019-06-26T11:50:22.395Z,13.20
2019-06-26T11:52:51.229Z,13.83
2019-06-26T11:55:20.450Z,10.55
2019-06-26T11:57:49.352Z,14.30
2019-06-26T12:00:21.073Z,14.80
2019-06-26T12:02:49.793Z,18.52
2019-06-26T12:05:19.113Z,16.00
2019-06-26T12:07:47.923Z,16.62
2019-06-26T12:10:17.325Z,12.47
2019-06-26T12:12:46.078Z,12.47
2019-06-26T12:15:15.666Z,15.38
2019-06-26T12:17:44.438Z,13.22
2019-06-26T12:20:19.327Z,10.05
2019-06-26T12:22:45.865Z,11.03
2019-06-26T12:25:15.228Z,12.07
2019-06-26T12:27:43.908Z,15.78
2019-06-26T12:30:13.907Z,15.85
2019-06-26T12:33:01.181Z,19.80
2019-06-26T12:35:13.735Z,18.73
2019-06-26T12:37:42.482Z,18.80
2019-06-26T12:40:13.071Z,20.50
2019-06-26T12:42:46.916Z,19.37
2019-06-26T12:45:16.182Z,17.30
2019-06-26T12:47:45.081Z,19.02
2019-06-26T12:50:14.688Z,14.38
2019-06-26T12:52:43.694Z,14.70
2019-06-26T12:55:12.898Z,12.65
2019-06-26T12:57:41.928Z,10.65
2019-06-26T13:00:12.001Z,11.00
2019-06-26T13:02:40.934Z,10.80
2019-06-26T13:05:10.450Z,10.48
2019-06-26T13:07:39.421Z,10.70
2019-06-26T13:10:10.815Z,12.30
2019-06-26T13:12:39.663Z,9.88
2019-06-26T13:15:09.724Z,9.63
2019-06-26T13:17:38.764Z,11.85
2019-06-26T13:20:10.019Z,14.03
2019-06-26T13:22:39.144Z,14.07
2019-06-26T13:25:08.896Z,15.13
2019-06-26T13:27:37.748Z,14.80
2019-06-26T13:30:08.158Z,14.10
2019-06-26T13:32:36.974Z,14.07
2019-06-26T13:35:07.538Z,15.88
2019-06-26T13:37:36.722Z,15.00
2019-06-26T13:40:08.074Z,14.93
2019-06-26T13:42:36.772Z,13.80
2019-06-26T13:45:07.810Z,13.18
2019-06-26T13:47:36.625Z,12.30
2019-06-26T13:50:07.001Z,10.58
2019-06-26T13:52:35.965Z,9.58
2019-06-26T13:55:05.765Z,11.33
2019-06-26T13:57:34.500Z,10.15
2019-06-26T14:00:04.880Z,10.20
2019-06-26T14:02:33.585Z,12.65
2019-06-26T14:05:02.382Z,14.23
2019-06-26T14:07:31.216Z,11.65
2019-06-26T14:10:00.052Z,12.35
2019-06-26T14:12:28.804Z,13.03
2019-06-26T14:14:58.323Z,10.93
2019-06-26T14:17:27.325Z,10.78
2019-06-26T14:19:56.257Z,12.60
2019-06-26T14:22:25.119Z,13.90
2019-06-26T14:24:54.341Z,11.22
2019-06-26T14:27:23.279Z,12.07
2019-06-26T14:29:52.124Z,11.40
2019-06-26T14:32:20.983Z,10.30
2019-06-26T14:34:49.778Z,10.50
2019-06-26T14:37:18.535Z,11.83
2019-06-26T14:39:47.339Z,11.85
2019-06-26T14:42:15.925Z,9.98
2019-06-26T14:44:44.697Z,11.20
2019-06-26T14:47:13.514Z,11.10
2019-06-26T14:49:42.335Z,11.93
2019-06-26T14:52:11.129Z,11.27
2019-06-26T14:54:39.935Z,13.50
2019-06-26T14:57:08.750Z,11.50
2019-06-26T14:59:37.459Z,11.70
2019-06-26T15:02:06.532Z,12.47
2019-06-26T15:04:35.447Z,11.73
2019-06-26T15:07:04.239Z,11.07
2019-06-26T15:09:32.972Z,10.43
2019-06-26T15:12:01.731Z,10.37
2019-06-26T15:14:30.441Z,8.90
2019-06-26T15:16:59.172Z,9.23
2019-06-26T15:19:27.769Z,9.63
2019-06-26T15:21:58.705Z,7.83
2019-06-26T15:24:26.893Z,8.83
2019-06-26T15:26:55.592Z,8.40
2019-06-26T15:29:24.399Z,7.07
2019-06-26T15:31:53.193Z,6.80
2019-06-26T15:34:22.024Z,7.10
2019-06-26T15:36:50.803Z,7.20
2019-06-26T15:39:19.573Z,7.87
2019-06-26T15:41:48.400Z,6.83
2019-06-26T15:44:17.052Z,7.40
2019-06-26T15:46:45.863Z,7.10
2019-06-26T15:49:14.527Z,7.23
2019-06-26T15:51:43.350Z,6.73
2019-06-26T15:54:12.163Z,7.03
2019-06-26T15:56:40.967Z,7.07
2019-06-26T15:59:09.907Z,6.67
2019-06-26T16:01:38.733Z,7.77
2019-06-26T16:04:07.461Z,7.40
2019-06-26T16:06:47.838Z,7.00
2019-06-26T16:09:16.676Z,7.40
2019-06-26T16:11:45.430Z,7.60
2019-06-26T16:14:14.233Z,6.67
2019-06-26T16:16:44.550Z,7.87
2019-06-26T16:19:14.925Z,7.50
2019-06-26T16:21:43.664Z,8.37
2019-06-26T16:24:12.440Z,8.10
2019-06-26T16:26:41.256Z,8.87
2019-06-26T16:29:09.920Z,8.67
2019-06-26T16:31:38.711Z,8.97
2019-06-26T16:34:07.540Z,8.20
2019-06-26T16:36:36.373Z,8.70
2019-06-26T16:39:07.584Z,9.63
2019-06-26T16:41:36.953Z,9.10
2019-06-26T16:44:06.894Z,10.00
2019-06-26T16:46:35.634Z,8.53
2019-06-26T16:49:04.836Z,8.73
2019-06-26T16:51:33.571Z,9.40
2019-06-26T16:54:02.390Z,9.40
2019-06-26T16:56:31.213Z,9.00
2019-06-26T16:59:00.013Z,9.47
2019-06-26T17:01:28.748Z,9.20
2019-06-26T17:03:57.527Z,8.80
2019-06-26T17:06:26.689Z,8.20
2019-06-26T17:08:55.774Z,8.50
2019-06-26T17:11:24.586Z,8.47
2019-06-26T17:13:53.364Z,7.77
2019-06-26T17:16:22.143Z,8.60
2019-06-26T17:18:50.876Z,8.03
2019-06-26T17:21:19.690Z,7.77
2019-06-26T17:23:48.473Z,8.90
2019-06-26T17:26:17.609Z,7.27
2019-06-26T17:28:46.435Z,7.20
2019-06-26T17:31:15.295Z,7.73
2019-06-26T17:33:44.233Z,7.50
2019-06-26T17:36:13.021Z,8.17
2019-06-26T17:38:41.887Z,8.70
2019-06-26T17:41:10.672Z,7.53
2019-06-26T17:43:39.506Z,7.70
2019-06-26T17:46:08.265Z,7.77
2019-06-26T17:48:36.995Z,8.17
2019-06-26T17:51:05.972Z,8.63
2019-06-26T17:53:34.956Z,8.50
2019-06-26T17:56:03.823Z,7.03
2019-06-26T17:58:32.564Z,7.47
2019-06-26T18:01:01.440Z,7.47
2019-06-26T18:03:30.358Z,7.20
2019-06-26T18:05:59.199Z,7.97
2019-06-26T18:08:28.075Z,7.53
2019-06-26T18:10:56.870Z,7.60
2019-06-26T18:13:25.743Z,8.40
2019-06-26T18:15:54.503Z,8.60
2019-06-26T18:18:23.301Z,9.13
2019-06-26T18:20:52.103Z,8.73
2019-06-26T18:23:33.618Z,10.00
2019-06-26T18:25:54.210Z,8.53
2019-06-26T18:28:21.990Z,8.53
2019-06-26T18:30:50.854Z,8.63
2019-06-26T18:33:19.671Z,8.73
2019-06-26T18:35:48.324Z,9.83
2019-06-26T18:38:17.154Z,9.40
2019-06-26T18:40:46.001Z,9.53
2019-06-26T18:43:15.193Z,8.77
2019-06-26T18:45:44.201Z,8.10
2019-06-26T18:48:13.079Z,7.23
2019-06-26T18:50:41.965Z,6.20
2019-06-26T18:53:10.772Z,7.37
2019-06-26T18:55:39.609Z,5.83
2019-06-26T18:58:08.479Z,5.40
2019-06-26T19:00:37.361Z,4.63
2019-06-26T19:03:06.242Z,5.70
2019-06-26T19:05:35.074Z,4.60
2019-06-26T19:08:03.915Z,4.30
2019-06-26T19:10:32.754Z,4.53
2019-06-26T19:13:01.566Z,3.10
2019-06-26T19:15:30.337Z,3.83
2019-06-26T19:17:59.239Z,3.10
2019-06-26T19:20:28.160Z,3.10
2019-06-26T19:22:57.021Z,3.20
2019-06-26T19:25:25.923Z,3.17
2019-06-26T19:27:54.814Z,3.03
2019-06-26T19:30:23.783Z,2.90
2019-06-26T19:32:52.797Z,3.57
2019-06-26T19:35:21.798Z,3.50
2019-06-26T19:37:50.772Z,3.30
2019-06-26T19:40:19.617Z,3.37
2019-06-26T19:42:48.443Z,3.40
2019-06-26T19:45:17.871Z,2.80
2019-06-26T19:47:46.940Z,3.60
2019-06-26T19:50:16.670Z,3.50
2019-06-26T19:52:45.570Z,3.30
2019-06-26T19:55:14.583Z,2.80
2019-06-26T19:57:43.453Z,4.13
2019-06-26T20:00:12.719Z,2.87
2019-06-26T20:02:41.643Z,3.47
2019-06-26T20:05:10.778Z,2.30
2019-06-26T20:07:39.577Z,2.90
2019-06-26T20:10:09.948Z,2.50
2019-06-26T20:12:38.825Z,2.43
2019-06-26T20:15:08.137Z,2.70
2019-06-26T20:17:37.001Z,2.97
2019-06-26T20:20:08.485Z,2.50
2019-06-26T20:22:37.489Z,3.60
2019-06-26T20:25:07.553Z,3.57
2019-06-26T20:27:36.449Z,3.40
2019-06-26T20:30:09.566Z,3.53
2019-06-26T20:32:37.288Z,3.23
2019-06-26T20:35:07.039Z,2.73
2019-06-26T20:37:36.183Z,3.03
2019-06-26T20:40:07.219Z,3.50
2019-06-26T20:42:36.140Z,3.33
2019-06-26T20:45:06.617Z,3.73
2019-06-26T20:47:35.515Z,3.70
2019-06-26T20:50:06.001Z,4.23
2019-06-26T20:52:34.840Z,3.73
2019-06-26T20:55:04.432Z,4.00
2019-06-26T20:57:33.376Z,3.93
2019-06-26T21:00:02.277Z,4.87
2019-06-26T21:02:31.126Z,3.53
2019-06-26T21:04:59.820Z,4.67
2019-06-26T21:07:28.719Z,3.70
2019-06-26T21:09:57.470Z,4.43
2019-06-26T21:12:26.207Z,4.33
2019-06-26T21:14:54.958Z,3.50
2019-06-26T21:17:25.803Z,4.63
2019-06-26T21:19:54.136Z,4.10
2019-06-26T21:22:22.957Z,4.47
2019-06-26T21:24:51.831Z,4.30
2019-06-26T21:27:20.658Z,3.90
2019-06-26T21:29:49.445Z,3.97
2019-06-26T21:32:18.224Z,4.60
2019-06-26T21:34:46.848Z,3.83
2019-06-26T21:37:15.643Z,4.00
2019-06-26T21:39:44.434Z,3.67
2019-06-26T21:42:13.279Z,3.80
2019-06-26T21:44:42.158Z,3.13
2019-06-26T21:47:10.997Z,3.77
2019-06-26T21:49:39.781Z,3.93
2019-06-26T21:52:08.523Z,3.57
2019-06-26T21:54:37.655Z,4.40
2019-06-26T21:57:09.250Z,3.60
2019-06-26T21:59:36.842Z,3.90
2019-06-26T22:02:05.847Z,3.43
2019-06-26T22:04:34.690Z,3.77
2019-06-26T22:07:03.530Z,2.63
2019-06-26T22:09:32.327Z,3.80
2019-06-26T22:12:01.091Z,4.00
2019-06-26T22:14:29.942Z,3.17
2019-06-26T22:16:58.698Z,4.27
2019-06-26T22:19:27.523Z,3.30
2019-06-26T22:21:56.347Z,3.60
2019-06-26T22:24:25.099Z,3.97
2019-06-26T22:26:53.951Z,3.40
2019-06-26T22:29:22.711Z,3.43
2019-06-26T22:31:51.587Z,3.83
2019-06-26T22:34:20.452Z,3.13
2019-06-26T22:36:52.189Z,3.90
2019-06-26T22:39:19.760Z,3.87
2019-06-26T22:41:48.526Z,3.47
2019-06-26T22:44:17.318Z,3.80
2019-06-26T22:46:46.074Z,3.77
2019-06-26T22:49:14.918Z,3.40
2019-06-26T22:51:43.588Z,3.40
2019-06-26T22:54:12.389Z,3.73
2019-06-26T22:56:41.161Z,3.47
2019-06-26T22:59:09.907Z,4.20
2019-06-26T23:01:38.805Z,3.33
2019-06-26T23:04:07.596Z,3.43
2019-06-26T23:06:37.547Z,4.10
2019-06-26T23:09:07.487Z,3.80
2019-06-26T23:11:36.347Z,3.90
2019-06-26T23:14:05.135Z,3.50
2019-06-26T23:16:33.899Z,3.40
2019-06-26T23:19:02.716Z,4.80
2019-06-26T23:21:31.480Z,3.60
2019-06-26T23:24:00.188Z,4.23
2019-06-26T23:26:28.919Z,4.00
2019-06-26T23:28:57.651Z,4.17
2019-06-26T23:31:26.478Z,5.37
2019-06-26T23:33:55.179Z,4.00
2019-06-26T23:36:23.903Z,4.00
2019-06-26T23:38:52.778Z,4.57
2019-06-26T23:41:21.534Z,4.27
2019-06-26T23:43:50.257Z,4.40
2019-06-26T23:46:19.010Z,3.80
2019-06-26T23:48:47.717Z,5.20
2019-06-26T23:51:16.531Z,4.60
2019-06-26T23:53:45.318Z,4.90
2019-06-26T23:56:14.044Z,5.10
2019-06-26T23:58:42.850Z,4.90
